sensor_id;sensor_type;location;lat;lon;timestamp;pressure;altitude;pressure_sealevel;temperature;humidity
33404;BME280;19751;40.274;18.268;2023-07-24T00:00:19;101038.00;;;30.86;100.00
33404;BME280;19751;40.274;18.268;2023-07-24T00:02:44;101043.22;;;30.88;100.00
33404;BME280;19751;40.274;18.268;2023-07-24T00:05:10;101032.44;;;30.86;100.00
33404;BME280;19751;40.274;18.268;2023-07-24T00:07:35;101036.03;;;30.87;100.00
33404;BME280;19751;40.274;18.268;2023-07-24T00:10:02;101033.69;;;30.80;100.00
33404;BME280;19751;40.274;18.268;2023-07-24T00:12:27;101035.09;;;30.69;100.00
33404;BME280;19751;40.274;18.268;2023-07-24T00:14:53;101027.31;;;30.57;100.00
33404;BME280;19751;40.274;18.268;2023-07-24T00:17:18;101030.88;;;30.49;100.00
33404;BME280;19751;40.274;18.268;2023-07-24T00:19:44;101034.88;;;30.43;100.00
33404;BME280;19751;40.274;18.268;2023-07-24T00:22:09;101030.63;;;30.37;100.00
33404;BME280;19751;40.274;18.268;2023-07-24T00:24:35;101029.41;;;30.29;100.00
33404;BME280;19751;40.274;18.268;2023-07-24T00:27:01;101035.09;;;30.24;100.00
33404;BME280;19751;40.274;18.268;2023-07-24T00:29:27;101027.06;;;30.23;100.00
33404;BME280;19751;40.274;18.268;2023-07-24T00:31:52;101040.94;;;30.23;100.00
33404;BME280;19751;40.274;18.268;2023-07-24T00:34:18;101037.06;;;30.24;100.00
33404;BME280;19751;40.274;18.268;2023-07-24T00:36:43;101037.69;;;30.20;100.00
33404;BME280;19751;40.274;18.268;2023-07-24T00:39:09;101029.84;;;30.23;100.00
33404;BME280;19751;40.274;18.268;2023-07-24T00:41:34;101029.34;;;30.20;100.00
33404;BME280;19751;40.274;18.268;2023-07-24T00:44:00;101030.47;;;30.19;100.00
33404;BME280;19751;40.274;18.268;2023-07-24T00:46:25;101032.59;;;30.23;100.00
33404;BME280;19751;40.274;18.268;2023-07-24T00:48:51;101027.06;;;30.23;100.00
33404;BME280;19751;40.274;18.268;2023-07-24T00:51:18;101019.38;;;30.19;100.00
33404;BME280;19751;40.274;18.268;2023-07-24T00:53:43;101025.56;;;30.16;100.00
33404;BME280;19751;40.274;18.268;2023-07-24T00:56:10;101029.47;;;30.15;100.00
33404;BME280;19751;40.274;18.268;2023-07-24T00:58:37;101028.31;;;30.16;100.00
33404;BME280;19751;40.274;18.268;2023-07-24T01:01:03;101020.28;;;30.15;100.00
33404;BME280;19751;40.274;18.268;2023-07-24T01:03:34;101022.88;;;30.11;100.00
33404;BME280;19751;40.274;18.268;2023-07-24T01:06:03;101020.38;;;30.10;100.00
33404;BME280;19751;40.274;18.268;2023-07-24T01:08:29;101021.84;;;30.07;100.00
33404;BME280;19751;40.274;18.268;2023-07-24T01:10:57;101027.22;;;30.04;100.00
33404;BME280;19751;40.274;18.268;2023-07-24T01:13:25;101018.16;;;29.98;100.00
33404;BME280;19751;40.274;18.268;2023-07-24T01:16:09;101010.56;;;29.90;100.00
33404;BME280;19751;40.274;18.268;2023-07-24T01:18:36;101019.03;;;29.85;100.00
33404;BME280;19751;40.274;18.268;2023-07-24T01:21:05;101012.44;;;29.81;100.00
33404;BME280;19751;40.274;18.268;2023-07-24T01:23:59;101015.75;;;29.83;100.00
33404;BME280;19751;40.274;18.268;2023-07-24T01:26:28;101015.09;;;29.86;100.00
33404;BME280;19751;40.274;18.268;2023-07-24T01:28:54;101021.50;;;29.86;100.00
33404;BME280;19751;40.274;18.268;2023-07-24T01:31:19;101014.63;;;29.84;100.00
33404;BME280;19751;40.274;18.268;2023-07-24T01:33:45;101015.22;;;29.81;100.00
33404;BME280;19751;40.274;18.268;2023-07-24T01:36:11;101013.78;;;29.83;100.00
33404;BME280;19751;40.274;18.268;2023-07-24T01:38:38;101014.09;;;29.82;100.00
33404;BME280;19751;40.274;18.268;2023-07-24T01:41:04;101020.78;;;29.81;100.00
33404;BME280;19751;40.274;18.268;2023-07-24T01:43:30;101013.06;;;29.78;100.00
33404;BME280;19751;40.274;18.268;2023-07-24T01:45:57;101009.78;;;29.76;100.00
33404;BME280;19751;40.274;18.268;2023-07-24T01:48:23;101011.44;;;29.77;100.00
33404;BME280;19751;40.274;18.268;2023-07-24T01:50:49;101017.81;;;29.77;100.00
33404;BME280;19751;40.274;18.268;2023-07-24T01:53:15;101014.81;;;29.73;100.00
33404;BME280;19751;40.274;18.268;2023-07-24T01:55:40;101010.72;;;29.71;100.00
33404;BME280;19751;40.274;18.268;2023-07-24T01:58:06;101010.22;;;29.69;100.00
33404;BME280;19751;40.274;18.268;2023-07-24T02:00:31;101009.91;;;29.70;100.00
33404;BME280;19751;40.274;18.268;2023-07-24T02:02:57;101007.13;;;29.70;100.00
33404;BME280;19751;40.274;18.268;2023-07-24T02:05:22;101011.06;;;29.69;100.00
33404;BME280;19751;40.274;18.268;2023-07-24T02:07:48;101005.81;;;29.68;100.00
33404;BME280;19751;40.274;18.268;2023-07-24T02:10:14;101000.56;;;29.66;100.00
33404;BME280;19751;40.274;18.268;2023-07-24T02:12:39;101009.50;;;29.63;100.00
33404;BME280;19751;40.274;18.268;2023-07-24T02:15:05;101004.09;;;29.58;100.00
33404;BME280;19751;40.274;18.268;2023-07-24T02:17:31;101003.03;;;29.54;100.00
33404;BME280;19751;40.274;18.268;2023-07-24T02:19:57;101006.94;;;29.53;100.00
33404;BME280;19751;40.274;18.268;2023-07-24T02:22:22;101016.09;;;29.54;100.00
33404;BME280;19751;40.274;18.268;2023-07-24T02:24:48;101005.81;;;29.54;100.00
33404;BME280;19751;40.274;18.268;2023-07-24T02:27:25;101000.53;;;29.53;100.00
33404;BME280;19751;40.274;18.268;2023-07-24T02:29:50;100999.22;;;29.50;100.00
33404;BME280;19751;40.274;18.268;2023-07-24T02:32:16;100995.09;;;29.47;100.00
33404;BME280;19751;40.274;18.268;2023-07-24T02:34:41;100990.91;;;29.50;100.00
33404;BME280;19751;40.274;18.268;2023-07-24T02:37:07;100994.81;;;29.49;100.00
33404;BME280;19751;40.274;18.268;2023-07-24T02:39:32;100987.22;;;29.41;100.00
33404;BME280;19751;40.274;18.268;2023-07-24T02:41:58;100994.19;;;29.38;100.00
33404;BME280;19751;40.274;18.268;2023-07-24T02:44:23;100985.06;;;29.38;100.00
33404;BME280;19751;40.274;18.268;2023-07-24T02:46:49;100982.28;;;29.38;100.00
33404;BME280;19751;40.274;18.268;2023-07-24T02:49:14;100985.88;;;29.38;100.00
33404;BME280;19751;40.274;18.268;2023-07-24T02:51:40;100993.38;;;29.38;100.00
33404;BME280;19751;40.274;18.268;2023-07-24T02:54:05;100994.19;;;29.38;100.00
33404;BME280;19751;40.274;18.268;2023-07-24T02:56:31;100994.69;;;29.40;100.00
33404;BME280;19751;40.274;18.268;2023-07-24T02:58:57;100986.09;;;29.42;100.00
33404;BME280;19751;40.274;18.268;2023-07-24T03:01:22;100990.28;;;29.39;100.00
33404;BME280;19751;40.274;18.268;2023-07-24T03:03:48;100991.44;;;29.38;100.00
33404;BME280;19751;40.274;18.268;2023-07-24T03:06:15;100989.25;;;29.35;100.00
33404;BME280;19751;40.274;18.268;2023-07-24T03:08:40;100985.78;;;29.30;100.00
33404;BME280;19751;40.274;18.268;2023-07-24T03:11:06;100987.31;;;29.22;100.00
33404;BME280;19751;40.274;18.268;2023-07-24T03:13:31;100992.66;;;29.18;100.00
33404;BME280;19751;40.274;18.268;2023-07-24T03:15:57;100991.34;;;29.16;100.00
33404;BME280;19751;40.274;18.268;2023-07-24T03:18:24;100986.69;;;29.11;100.00
33404;BME280;19751;40.274;18.268;2023-07-24T03:20:49;100993.38;;;29.10;100.00
33404;BME280;19751;40.274;18.268;2023-07-24T03:23:15;100998.31;;;29.13;100.00
33404;BME280;19751;40.274;18.268;2023-07-24T03:25:40;100989.69;;;29.15;100.00
33404;BME280;19751;40.274;18.268;2023-07-24T03:28:06;100986.91;;;29.15;100.00
33404;BME280;19751;40.274;18.268;2023-07-24T03:30:32;100990.00;;;29.13;100.00
33404;BME280;19751;40.274;18.268;2023-07-24T03:32:58;100993.38;;;29.10;100.00
33404;BME280;19751;40.274;18.268;2023-07-24T03:35:23;100984.03;;;29.06;100.00
33404;BME280;19751;40.274;18.268;2023-07-24T03:37:49;100984.34;;;29.05;100.00
33404;BME280;19751;40.274;18.268;2023-07-24T03:40:14;100982.72;;;29.04;100.00
33404;BME280;19751;40.274;18.268;2023-07-24T03:42:41;100988.75;;;29.06;100.00
33404;BME280;19751;40.274;18.268;2023-07-24T03:45:07;100989.28;;;29.08;100.00
33404;BME280;19751;40.274;18.268;2023-07-24T03:47:33;100983.44;;;29.09;100.00
33404;BME280;19751;40.274;18.268;2023-07-24T03:49:58;100990.13;;;29.08;100.00
33404;BME280;19751;40.274;18.268;2023-07-24T03:52:24;100989.47;;;29.11;100.00
33404;BME280;19751;40.274;18.268;2023-07-24T03:54:51;100983.09;;;29.11;100.00
33404;BME280;19751;40.274;18.268;2023-07-24T03:57:17;100990.31;;;29.12;100.00
33404;BME280;19751;40.274;18.268;2023-07-24T03:59:43;100992.78;;;29.13;100.00
33404;BME280;19751;40.274;18.268;2023-07-24T04:02:08;100991.34;;;29.16;100.00
33404;BME280;19751;40.274;18.268;2023-07-24T04:04:34;100992.97;;;29.17;100.00
33404;BME280;19751;40.274;18.268;2023-07-24T04:06:59;100997.41;;;29.18;100.00
33404;BME280;19751;40.274;18.268;2023-07-24T04:09:25;100996.56;;;29.17;100.00
33404;BME280;19751;40.274;18.268;2023-07-24T04:11:50;100986.63;;;29.16;100.00
33404;BME280;19751;40.274;18.268;2023-07-24T04:14:16;101000.50;;;29.16;100.00
33404;BME280;19751;40.274;18.268;2023-07-24T04:16:41;100999.84;;;29.19;100.00
33404;BME280;19751;40.274;18.268;2023-07-24T04:19:07;100992.06;;;29.21;100.00
33404;BME280;19751;40.274;18.268;2023-07-24T04:21:34;100999.25;;;29.22;100.00
33404;BME280;19751;40.274;18.268;2023-07-24T04:24:00;101001.63;;;29.29;100.00
33404;BME280;19751;40.274;18.268;2023-07-24T04:26:26;100995.44;;;29.32;100.00
33404;BME280;19751;40.274;18.268;2023-07-24T04:28:51;100999.25;;;29.36;100.00
33404;BME280;19751;40.274;18.268;2023-07-24T04:31:17;101003.34;;;29.39;100.00
33404;BME280;19751;40.274;18.268;2023-07-24T04:33:42;101006.66;;;29.41;100.00
33404;BME280;19751;40.274;18.268;2023-07-24T04:36:08;101015.16;;;29.44;100.00
33404;BME280;19751;40.274;18.268;2023-07-24T04:38:33;101003.22;;;29.44;100.00
33404;BME280;19751;40.274;18.268;2023-07-24T04:41:02;101001.59;;;29.43;100.00
33404;BME280;19751;40.274;18.268;2023-07-24T04:43:28;101006.53;;;29.46;100.00
33404;BME280;19751;40.274;18.268;2023-07-24T04:45:54;101002.00;;;29.50;100.00
33404;BME280;19751;40.274;18.268;2023-07-24T04:48:19;101009.72;;;29.53;100.00
33404;BME280;19751;40.274;18.268;2023-07-24T04:50:45;101008.56;;;29.54;100.00
33404;BME280;19751;40.274;18.268;2023-07-24T04:53:10;101005.47;;;29.56;100.00
33404;BME280;19751;40.274;18.268;2023-07-24T04:55:36;101011.88;;;29.56;100.00
33404;BME280;19751;40.274;18.268;2023-07-24T04:58:01;101009.63;;;29.58;100.00
33404;BME280;19751;40.274;18.268;2023-07-24T05:00:27;101013.44;;;29.62;100.00
33404;BME280;19751;40.274;18.268;2023-07-24T05:02:52;101012.28;;;29.63;100.00
33404;BME280;19751;40.274;18.268;2023-07-24T05:05:18;101021.13;;;29.65;100.00
33404;BME280;19751;40.274;18.268;2023-07-24T05:07:43;101016.63;;;29.69;100.00
33404;BME280;19751;40.274;18.268;2023-07-24T05:10:09;101014.81;;;29.73;100.00
33404;BME280;19751;40.274;18.268;2023-07-24T05:12:35;101008.03;;;29.80;100.00
33404;BME280;19751;40.274;18.268;2023-07-24T05:15:00;101015.75;;;29.83;100.00
33404;BME280;19751;40.274;18.268;2023-07-24T05:17:26;101007.31;;;29.88;100.00
33404;BME280;19751;40.274;18.268;2023-07-24T05:19:51;101009.13;;;29.92;100.00
33404;BME280;19751;40.274;18.268;2023-07-24T05:22:17;101007.56;;;30.00;100.00
33404;BME280;19751;40.274;18.268;2023-07-24T05:24:42;101009.91;;;30.07;100.00
33404;BME280;19751;40.274;18.268;2023-07-24T05:27:08;101011.44;;;30.13;100.00
33404;BME280;19751;40.274;18.268;2023-07-24T05:29:33;101007.41;;;30.19;100.00
33404;BME280;19751;40.274;18.268;2023-07-24T05:31:59;101009.56;;;30.22;100.00
33404;BME280;19751;40.274;18.268;2023-07-24T05:34:25;101014.81;;;30.24;100.00
33404;BME280;19751;40.274;18.268;2023-07-24T05:36:51;101016.66;;;30.28;100.00
33404;BME280;19751;40.274;18.268;2023-07-24T05:39:16;101005.75;;;30.32;100.00
33404;BME280;19751;40.274;18.268;2023-07-24T05:41:42;101017.00;;;30.35;100.00
33404;BME280;19751;40.274;18.268;2023-07-24T05:44:07;101012.16;;;30.41;100.00
33404;BME280;19751;40.274;18.268;2023-07-24T05:46:33;101017.06;;;30.44;100.00
33404;BME280;19751;40.274;18.268;2023-07-24T05:48:58;101020.03;;;30.48;100.00
33404;BME280;19751;40.274;18.268;2023-07-24T05:51:25;101015.81;;;30.50;100.00
33404;BME280;19751;40.274;18.268;2023-07-24T05:53:51;101014.88;;;30.55;100.00
33404;BME280;19751;40.274;18.268;2023-07-24T05:56:16;101025.03;;;30.59;100.00
33404;BME280;19751;40.274;18.268;2023-07-24T05:58:42;101023.78;;;30.65;100.00
33404;BME280;19751;40.274;18.268;2023-07-24T06:01:07;101019.41;;;30.73;100.00
33404;BME280;19751;40.274;18.268;2023-07-24T06:03:35;101022.56;;;30.80;100.00
33404;BME280;19751;40.274;18.268;2023-07-24T06:06:01;101021.31;;;30.86;100.00
33404;BME280;19751;40.274;18.268;2023-07-24T06:08:26;101017.03;;;30.89;100.00
33404;BME280;19751;40.274;18.268;2023-07-24T06:10:52;101017.75;;;30.94;100.00
33404;BME280;19751;40.274;18.268;2023-07-24T06:13:17;101020.38;;;31.00;100.00
33404;BME280;19751;40.274;18.268;2023-07-24T06:15:43;101013.38;;;31.02;100.00
33404;BME280;19751;40.274;18.268;2023-07-24T06:18:09;101015.47;;;31.05;100.00
33404;BME280;19751;40.274;18.268;2023-07-24T06:20:35;101018.78;;;31.07;100.00
33404;BME280;19751;40.274;18.268;2023-07-24T06:23:01;101014.22;;;31.11;100.00
33404;BME280;19751;40.274;18.268;2023-07-24T06:25:29;101018.81;;;31.16;100.00
33404;BME280;19751;40.274;18.268;2023-07-24T06:27:56;101015.53;;;31.23;100.00
33404;BME280;19751;40.274;18.268;2023-07-24T06:30:21;101012.94;;;31.26;100.00
33404;BME280;19751;40.274;18.268;2023-07-24T06:32:46;101015.94;;;31.30;100.00
33404;BME280;19751;40.274;18.268;2023-07-24T06:35:12;101015.28;;;31.33;100.00
33404;BME280;19751;40.274;18.268;2023-07-24T06:37:37;101024.66;;;31.37;100.00
33404;BME280;19751;40.274;18.268;2023-07-24T06:40:03;101022.03;;;31.40;100.00
33404;BME280;19751;40.274;18.268;2023-07-24T06:42:29;101019.44;;;31.44;100.00
33404;BME280;19751;40.274;18.268;2023-07-24T06:44:55;101016.50;;;31.49;100.00
33404;BME280;19751;40.274;18.268;2023-07-24T06:47:20;101008.78;;;31.55;100.00
33404;BME280;19751;40.274;18.268;2023-07-24T06:49:46;101014.72;;;31.62;100.00
33404;BME280;19751;40.274;18.268;2023-07-24T06:52:12;101013.25;;;31.64;97.57
33404;BME280;19751;40.274;18.268;2023-07-24T06:54:37;101013.56;;;31.72;95.92
33404;BME280;19751;40.274;18.268;2023-07-24T06:57:03;101010.63;;;31.77;96.11
33404;BME280;19751;40.274;18.268;2023-07-24T06:59:29;101003.94;;;31.78;95.44
33404;BME280;19751;40.274;18.268;2023-07-24T07:01:54;100999.00;;;31.83;92.84
33404;BME280;19751;40.274;18.268;2023-07-24T07:04:20;101002.97;;;31.91;91.75
33404;BME280;19751;40.274;18.268;2023-07-24T07:06:45;101003.78;;;32.00;90.55
33404;BME280;19751;40.274;18.268;2023-07-24T07:09:11;100999.38;;;32.08;89.48
33404;BME280;19751;40.274;18.268;2023-07-24T07:11:36;100995.94;;;32.11;88.95
33404;BME280;19751;40.274;18.268;2023-07-24T07:14:02;100996.09;;;32.14;87.68
33404;BME280;19751;40.274;18.268;2023-07-24T07:16:27;100992.63;;;32.17;86.23
33404;BME280;19751;40.274;18.268;2023-07-24T07:18:53;100983.63;;;32.21;84.36
33404;BME280;19751;40.274;18.268;2023-07-24T07:21:18;100990.69;;;32.27;84.21
33404;BME280;19751;40.274;18.268;2023-07-24T07:23:44;101000.03;;;32.31;84.16
33404;BME280;19751;40.274;18.268;2023-07-24T07:26:09;101001.47;;;32.37;84.05
33404;BME280;19751;40.274;18.268;2023-07-24T07:28:35;100993.78;;;32.42;83.51
33404;BME280;19751;40.274;18.268;2023-07-24T07:31:01;100997.88;;;32.45;82.67
33404;BME280;19751;40.274;18.268;2023-07-24T07:33:26;101001.31;;;32.51;81.50
33404;BME280;19751;40.274;18.268;2023-07-24T07:35:52;101005.88;;;32.55;79.98
33404;BME280;19751;40.274;18.268;2023-07-24T07:38:17;101007.38;;;32.61;78.99
33404;BME280;19751;40.274;18.268;2023-07-24T07:40:43;101013.09;;;32.65;78.21
33404;BME280;19751;40.274;18.268;2023-07-24T07:43:08;101009.97;;;32.66;76.92
33404;BME280;19751;40.274;18.268;2023-07-24T07:45:34;101009.78;;;32.72;75.96
33404;BME280;19751;40.274;18.268;2023-07-24T07:48:00;100998.59;;;32.80;72.33
33404;BME280;19751;40.274;18.268;2023-07-24T07:50:25;101007.28;;;32.87;68.26
33404;BME280;19751;40.274;18.268;2023-07-24T07:52:51;101000.22;;;32.99;64.11
33404;BME280;19751;40.274;18.268;2023-07-24T07:55:20;101003.44;;;33.09;61.47
33404;BME280;19751;40.274;18.268;2023-07-24T07:57:46;100999.31;;;33.15;56.53
33404;BME280;19751;40.274;18.268;2023-07-24T08:00:12;101003.88;;;33.20;55.28
33404;BME280;19751;40.274;18.268;2023-07-24T08:02:38;101001.72;;;33.26;53.62
33404;BME280;19751;40.274;18.268;2023-07-24T08:05:08;100995.16;;;33.30;49.93
33404;BME280;19751;40.274;18.268;2023-07-24T08:07:33;101000.84;;;33.34;49.42
33404;BME280;19751;40.274;18.268;2023-07-24T08:09:59;101003.31;;;33.35;48.77
33404;BME280;19751;40.274;18.268;2023-07-24T08:12:25;101000.69;;;33.39;48.48
33404;BME280;19751;40.274;18.268;2023-07-24T08:14:50;100999.00;;;33.47;48.30
33404;BME280;19751;40.274;18.268;2023-07-24T08:17:16;101001.06;;;33.58;47.46
33404;BME280;19751;40.274;18.268;2023-07-24T08:19:41;100996.44;;;33.62;46.18
33404;BME280;19751;40.274;18.268;2023-07-24T08:22:07;100997.38;;;33.67;44.97
33404;BME280;19751;40.274;18.268;2023-07-24T08:24:35;100997.53;;;33.70;44.19
33404;BME280;19751;40.274;18.268;2023-07-24T08:27:01;101000.47;;;33.74;43.70
33404;BME280;19751;40.274;18.268;2023-07-24T08:29:27;100990.91;;;33.75;42.78
33404;BME280;19751;40.274;18.268;2023-07-24T08:31:52;100994.22;;;33.77;42.13
33404;BME280;19751;40.274;18.268;2023-07-24T08:34:18;100989.09;;;33.79;41.84
33404;BME280;19751;40.274;18.268;2023-07-24T08:36:43;100985.63;;;33.82;42.02
33404;BME280;19751;40.274;18.268;2023-07-24T08:39:09;100981.72;;;33.95;41.07
33404;BME280;19751;40.274;18.268;2023-07-24T08:41:36;100977.25;;;34.03;40.64
33404;BME280;19751;40.274;18.268;2023-07-24T08:44:04;100981.00;;;34.07;40.61
33404;BME280;19751;40.274;18.268;2023-07-24T08:46:31;100976.50;;;34.14;40.11
33404;BME280;19751;40.274;18.268;2023-07-24T08:49:00;100973.25;;;34.25;39.66
33404;BME280;19751;40.274;18.268;2023-07-24T08:51:26;100974.47;;;34.36;38.91
33404;BME280;19751;40.274;18.268;2023-07-24T08:53:53;100972.97;;;34.38;38.42
33404;BME280;19751;40.274;18.268;2023-07-24T08:56:19;100975.88;;;34.42;38.20
33404;BME280;19751;40.274;18.268;2023-07-24T08:58:45;100981.66;;;34.58;37.54
33404;BME280;19751;40.274;18.268;2023-07-24T09:01:10;100979.13;;;34.77;36.55
33404;BME280;19751;40.274;18.268;2023-07-24T09:03:36;100978.31;;;34.89;36.28
33404;BME280;19751;40.274;18.268;2023-07-24T09:06:02;100972.03;;;34.92;35.90
33404;BME280;19751;40.274;18.268;2023-07-24T09:08:39;100980.53;;;34.96;35.85
33404;BME280;19751;40.274;18.268;2023-07-24T09:11:06;100977.06;;;34.99;36.05
33404;BME280;19751;40.274;18.268;2023-07-24T09:13:32;100980.00;;;35.02;35.59
33404;BME280;19751;40.274;18.268;2023-07-24T09:15:58;100974.41;;;35.02;35.02
33404;BME280;19751;40.274;18.268;2023-07-24T09:18:25;100962.38;;;35.02;34.70
33404;BME280;19751;40.274;18.268;2023-07-24T09:20:50;100966.81;;;35.03;34.65
33404;BME280;19751;40.274;18.268;2023-07-24T09:23:28;100967.28;;;35.05;33.97
33404;BME280;19751;40.274;18.268;2023-07-24T09:25:54;100964.81;;;35.03;34.21
33404;BME280;19751;40.274;18.268;2023-07-24T09:28:20;100963.44;;;35.22;33.06
33404;BME280;19751;40.274;18.268;2023-07-24T09:30:57;100953.34;;;35.45;32.42
33404;BME280;19751;40.274;18.268;2023-07-24T09:33:33;100948.22;;;35.47;32.47
33404;BME280;19751;40.274;18.268;2023-07-24T09:36:03;100953.00;;;35.47;32.63
33404;BME280;19751;40.274;18.268;2023-07-24T09:38:29;100953.50;;;35.49;32.57
33404;BME280;19751;40.274;18.268;2023-07-24T09:40:55;100945.09;;;35.49;32.49
33404;BME280;19751;40.274;18.268;2023-07-24T09:43:23;100949.41;;;35.46;32.62
33404;BME280;19751;40.274;18.268;2023-07-24T09:45:50;100942.50;;;35.44;32.56
33404;BME280;19751;40.274;18.268;2023-07-24T09:48:17;100943.78;;;35.46;32.40
33404;BME280;19751;40.274;18.268;2023-07-24T09:50:48;100937.97;;;35.51;32.22
33404;BME280;19751;40.274;18.268;2023-07-24T09:55:58;100934.66;;;35.61;32.07
33404;BME280;19751;40.274;18.268;2023-07-24T09:58:25;100931.88;;;35.61;31.88
33404;BME280;19751;40.274;18.268;2023-07-24T10:00:52;100927.44;;;35.60;31.81
33404;BME280;19751;40.274;18.268;2023-07-24T10:03:18;100924.03;;;35.67;31.95
33404;BME280;19751;40.274;18.268;2023-07-24T10:05:46;100924.50;;;35.69;32.00
33404;BME280;19751;40.274;18.268;2023-07-24T10:08:14;100918.19;;;35.72;31.66
33404;BME280;19751;40.274;18.268;2023-07-24T10:10:39;100914.31;;;35.77;31.52
33404;BME280;19751;40.274;18.268;2023-07-24T10:13:06;100911.25;;;35.82;31.38
33404;BME280;19751;40.274;18.268;2023-07-24T10:15:32;100916.97;;;35.85;30.56
33404;BME280;19751;40.274;18.268;2023-07-24T10:18:06;100912.38;;;35.93;30.41
33404;BME280;19751;40.274;18.268;2023-07-24T10:20:39;100907.56;;;35.94;30.45
33404;BME280;19751;40.274;18.268;2023-07-24T10:23:10;100901.56;;;36.07;29.70
33404;BME280;19751;40.274;18.268;2023-07-24T10:25:38;100897.78;;;36.16;29.30
33404;BME280;19751;40.274;18.268;2023-07-24T10:28:10;100896.63;;;36.32;28.50
33404;BME280;19751;40.274;18.268;2023-07-24T10:30:42;100892.84;;;36.41;28.33
33404;BME280;19751;40.274;18.268;2023-07-24T10:33:21;100891.69;;;36.42;28.42
33404;BME280;19751;40.274;18.268;2023-07-24T10:35:49;100897.06;;;36.47;27.97
33404;BME280;19751;40.274;18.268;2023-07-24T10:38:16;100890.34;;;36.51;27.78
33404;BME280;19751;40.274;18.268;2023-07-24T10:40:45;100880.47;;;36.57;27.55
33404;BME280;19751;40.274;18.268;2023-07-24T10:43:13;100876.94;;;36.61;27.55
33404;BME280;19751;40.274;18.268;2023-07-24T10:45:49;100877.94;;;36.52;27.42
33404;BME280;19751;40.274;18.268;2023-07-24T10:48:16;100869.09;;;36.50;27.10
33404;BME280;19751;40.274;18.268;2023-07-24T10:50:47;100871.63;;;36.55;27.12
33404;BME280;19751;40.274;18.268;2023-07-24T10:53:22;100872.00;;;36.54;27.02
33404;BME280;19751;40.274;18.268;2023-07-24T10:55:49;100865.28;;;36.58;26.45
33404;BME280;19751;40.274;18.268;2023-07-24T10:58:18;100863.72;;;36.61;26.02
33404;BME280;19751;40.274;18.268;2023-07-24T11:00:44;100869.34;;;36.61;25.73
33404;BME280;19751;40.274;18.268;2023-07-24T11:03:11;100864.72;;;36.69;25.71
33404;BME280;19751;40.274;18.268;2023-07-24T11:05:43;100857.59;;;36.71;25.74
33404;BME280;19751;40.274;18.268;2023-07-24T11:08:20;100863.28;;;36.75;25.48
33404;BME280;19751;40.274;18.268;2023-07-24T11:13:19;100855.00;;;36.82;25.24
33404;BME280;19751;40.274;18.268;2023-07-24T11:15:45;100855.91;;;36.86;24.99
33404;BME280;19751;40.274;18.268;2023-07-24T11:18:11;100849.13;;;36.87;24.98
33404;BME280;19751;40.274;18.268;2023-07-24T11:20:50;100855.47;;;36.84;24.70
33404;BME280;19751;40.274;18.268;2023-07-24T11:23:17;100857.91;;;36.86;24.21
33404;BME280;19751;40.274;18.268;2023-07-24T11:25:43;100854.28;;;36.85;24.09
33404;BME280;19751;40.274;18.268;2023-07-24T11:28:12;100851.66;;;36.92;23.89
33404;BME280;19751;40.274;18.268;2023-07-24T11:30:38;100850.00;;;36.91;24.19
33404;BME280;19751;40.274;18.268;2023-07-24T11:33:24;100849.94;;;36.88;24.35
33404;BME280;19751;40.274;18.268;2023-07-24T11:35:52;100838.53;;;36.96;24.71
33404;BME280;19751;40.274;18.268;2023-07-24T11:38:18;100843.28;;;37.12;24.67
33404;BME280;19751;40.274;18.268;2023-07-24T11:40:44;100837.75;;;37.15;24.67
33404;BME280;19751;40.274;18.268;2023-07-24T11:43:36;100838.56;;;37.16;24.33
33404;BME280;19751;40.274;18.268;2023-07-24T11:46:10;100840.28;;;37.20;24.21
33404;BME280;19751;40.274;18.268;2023-07-24T11:48:41;100824.91;;;37.33;24.17
33404;BME280;19751;40.274;18.268;2023-07-24T11:51:06;100820.50;;;37.52;23.55
33404;BME280;19751;40.274;18.268;2023-07-24T11:53:32;100822.03;;;37.69;22.98
33404;BME280;19751;40.274;18.268;2023-07-24T11:55:58;100824.09;;;37.72;23.37
33404;BME280;19751;40.274;18.268;2023-07-24T11:58:28;100826.97;;;37.75;23.56
33404;BME280;19751;40.274;18.268;2023-07-24T12:00:54;100824.59;;;37.77;23.71
33404;BME280;19751;40.274;18.268;2023-07-24T12:03:26;100820.97;;;37.77;24.23
33404;BME280;19751;40.274;18.268;2023-07-24T12:06:02;100817.81;;;37.78;23.91
33404;BME280;19751;40.274;18.268;2023-07-24T12:08:34;100821.56;;;37.86;24.25
33404;BME280;19751;40.274;18.268;2023-07-24T12:11:01;100825.84;;;37.99;24.12
33404;BME280;19751;40.274;18.268;2023-07-24T12:13:27;100816.41;;;38.11;24.00
33404;BME280;19751;40.274;18.268;2023-07-24T12:15:54;100813.78;;;38.22;23.79
33404;BME280;19751;40.274;18.268;2023-07-24T12:18:19;100807.19;;;38.34;23.49
33404;BME280;19751;40.274;18.268;2023-07-24T12:20:45;100813.22;;;38.36;23.99
33404;BME280;19751;40.274;18.268;2023-07-24T12:23:10;100816.91;;;38.40;23.98
33404;BME280;19751;40.274;18.268;2023-07-24T12:25:36;100809.41;;;38.47;23.44
33404;BME280;19751;40.274;18.268;2023-07-24T12:28:01;100809.84;;;38.49;23.11
33404;BME280;19751;40.274;18.268;2023-07-24T12:30:27;100809.91;;;38.53;23.27
33404;BME280;19751;40.274;18.268;2023-07-24T12:32:53;100812.38;;;38.58;23.58
33404;BME280;19751;40.274;18.268;2023-07-24T12:35:18;100806.03;;;38.65;23.47
33404;BME280;19751;40.274;18.268;2023-07-24T12:37:44;100799.25;;;38.66;23.36